Time;durP1;ratioP1;P1;durP2;ratioP2;P2;SDS_P1;SDS_P2;PMS_P1;PMS_P2;Temp;Humidity;BMP_temperature;BMP_pressure;BME280_temperature;BME280_humidity;BME280_pressure;Samples;Min_cycle;Max_cycle;Signal;HPM_P1;HPM_P2
2021/01/23 00:02:25;;;;;;;40.05;19.80;;;;;;;0.60;99.34;99505.47;5015278;28;20136;-63
2021/01/23 00:04:51;;;;;;;40.30;20.23;;;;;;;0.62;99.58;99506.22;5007156;28;20112;-62
2021/01/23 00:07:18;;;;;;;35.15;21.02;;;;;;;0.63;99.22;99505.28;5007470;28;20058;-62
2021/01/23 00:09:44;;;;;;;47.25;21.40;;;;;;;0.62;99.10;99506.22;5016561;28;20050;-61
2021/01/23 00:12:10;;;;;;;37.20;19.48;;;;;;;0.65;98.80;99494.59;5006914;28;20045;-62
2021/01/23 00:14:36;;;;;;;38.88;19.27;;;;;;;0.70;99.50;99489.81;5008066;28;20050;-62
2021/01/23 00:17:02;;;;;;;37.45;20.90;;;;;;;0.68;99.03;99491.72;5005263;28;20100;-62
2021/01/23 00:19:28;;;;;;;32.72;19.30;;;;;;;0.71;99.37;99496.81;5006489;28;20495;-63
2021/01/23 00:21:54;;;;;;;33.05;18.95;;;;;;;0.72;99.12;99502.94;5022266;28;20061;-63
2021/01/23 00:24:20;;;;;;;34.10;21.00;;;;;;;0.73;98.73;99499.34;5005884;28;20058;-62
2021/01/23 00:26:46;;;;;;;33.25;19.08;;;;;;;0.68;98.99;99492.56;5008451;28;20050;-63
2021/01/23 00:29:13;;;;;;;41.30;21.90;;;;;;;0.66;98.72;99493.59;5008385;28;20069;-62
2021/01/23 00:31:40;;;;;;;35.05;18.73;;;;;;;0.68;99.37;99497.84;5015445;28;20054;-63
2021/01/23 00:34:05;;;;;;;39.03;21.08;;;;;;;0.68;98.94;99497.84;5007305;28;20056;-62
2021/01/23 00:36:31;;;;;;;35.30;20.05;;;;;;;0.72;98.93;99492.34;5025475;28;20395;-63
2021/01/23 00:38:58;;;;;;;36.78;21.40;;;;;;;0.71;98.90;99496.81;5026146;28;20057;-64
2021/01/23 00:41:26;;;;;;;36.20;20.95;;;;;;;0.63;98.66;99494.69;5024915;28;20053;-62
2021/01/23 00:43:52;;;;;;;35.70;19.65;;;;;;;0.65;98.70;99487.47;5026778;28;20049;-62
2021/01/23 00:46:18;;;;;;;37.65;20.80;;;;;;;0.65;99.36;99486.66;5024358;28;20049;-64
2021/01/23 00:48:44;;;;;;;35.95;20.30;;;;;;;0.63;98.81;99485.88;5018869;28;20084;-63
2021/01/23 00:51:10;;;;;;;39.20;20.88;;;;;;;0.61;99.20;99485.16;5026121;28;20402;-62
2021/01/23 00:53:36;;;;;;;34.85;20.50;;;;;;;0.58;98.94;99485.38;5024569;28;20057;-62
2021/01/23 00:56:03;;;;;;;37.80;19.90;;;;;;;0.67;98.90;99474.97;5025602;28;20045;-62
2021/01/23 01:01:16;;;;;;;36.95;20.55;;;;;;;0.56;99.11;99477.53;5079347;23;20074;-62
2021/01/23 01:03:42;;;;;;;29.65;20.35;;;;;;;0.61;99.02;99480.69;5083266;28;20047;-63
2021/01/23 01:06:08;;;;;;;36.83;21.48;;;;;;;0.63;99.12;99478.81;5075983;28;20119;-62
2021/01/23 01:08:34;;;;;;;44.08;22.73;;;;;;;0.63;98.98;99483.22;5075991;28;20052;-62
2021/01/23 01:11:00;;;;;;;52.00;24.63;;;;;;;0.65;98.77;99481.34;5071098;28;20551;-62
2021/01/23 01:13:26;;;;;;;61.13;26.10;;;;;;;0.69;99.27;99483.66;5085369;28;20052;-62
2021/01/23 01:15:52;;;;;;;55.42;25.40;;;;;;;0.68;99.25;99468.72;5093999;28;20101;-62
2021/01/23 01:18:19;;;;;;;53.33;22.27;;;;;;;0.72;99.08;99473.81;5092132;28;20451;-62
2021/01/23 01:20:45;;;;;;;34.88;21.08;;;;;;;0.74;99.14;99472.75;5096720;28;20044;-62
2021/01/23 01:23:10;;;;;;;34.05;19.40;;;;;;;0.70;98.52;99468.63;5089982;28;20048;-62
2021/01/23 01:25:36;;;;;;;34.30;20.20;;;;;;;0.70;98.61;99473.91;5085084;28;20053;-63
2021/01/23 01:28:02;;;;;;;33.58;18.98;;;;;;;0.75;99.02;99470.94;5086938;28;20102;-63
2021/01/23 01:30:28;;;;;;;30.30;18.10;;;;;;;0.90;99.09;99475.16;5092132;28;20047;-62
2021/01/23 01:32:54;;;;;;;33.47;19.20;;;;;;;0.82;98.82;99467.75;5094575;28;20385;-62
2021/01/23 01:35:21;;;;;;;30.05;18.45;;;;;;;0.86;98.55;99468.38;5093608;28;20052;-63
2021/01/23 01:37:47;;;;;;;28.10;16.98;;;;;;;0.88;98.47;99461.16;5095838;28;20047;-63
2021/01/23 01:40:14;;;;;;;28.15;17.90;;;;;;;0.90;98.38;99464.56;5091913;28;20098;-62
2021/01/23 01:42:40;;;;;;;29.67;18.25;;;;;;;0.83;98.28;99458.00;5089981;28;20044;-62
2021/01/23 01:45:07;;;;;;;42.45;21.33;;;;;;;0.82;98.48;99461.59;5077804;28;20052;-62
2021/01/23 01:47:34;;;;;;;48.60;22.75;;;;;;;0.86;98.07;99458.63;5071442;28;20116;-62
2021/01/23 01:50:01;;;;;;;43.17;19.58;;;;;;;0.85;98.24;99453.44;5075111;28;20094;-62
2021/01/23 01:52:27;;;;;;;33.80;18.25;;;;;;;0.84;98.40;99449.97;5088594;28;20055;-63
2021/01/23 01:54:54;;;;;;;31.88;17.42;;;;;;;0.77;98.12;99439.91;5094979;28;20043;-62
2021/01/23 01:57:21;;;;;;;27.20;15.85;;;;;;;0.73;98.11;99441.06;5094027;28;20048;-61
2021/01/23 01:59:47;;;;;;;40.20;18.45;;;;;;;0.75;98.31;99439.16;5096178;28;20047;-62
2021/01/23 02:02:24;;;;;;;42.63;20.85;;;;;;;0.71;97.90;99441.19;5095930;28;20068;-61
2021/01/23 02:04:57;;;;;;;61.00;22.13;;;;;;;0.72;98.24;99444.69;5096890;28;20060;-62
2021/01/23 02:07:42;;;;;;;49.47;22.77;;;;;;;0.74;97.92;99421.56;5101437;22;20067;-62
2021/01/23 02:10:22;;;;;;;49.28;20.23;;;;;;;0.69;98.31;99429.84;5041015;28;20406;-62
2021/01/23 02:12:57;;;;;;;30.95;16.83;;;;;;;0.74;98.16;99433.03;5041927;28;20045;-62
2021/01/23 02:15:27;;;;;;;33.67;16.90;;;;;;;0.68;97.94;99436.13;5041823;28;20044;-62
2021/01/23 02:18:03;;;;;;;29.63;16.70;;;;;;;0.63;97.69;99432.94;5043751;28;20490;-62
2021/01/23 02:20:49;;;;;;;27.05;15.88;;;;;;;0.69;98.00;99424.53;5043490;28;20057;-62
2021/01/23 02:23:18;;;;;;;35.00;17.52;;;;;;;0.68;97.69;99428.16;5034126;28;20057;-63
2021/01/23 02:26:01;;;;;;;35.58;16.83;;;;;;;0.76;97.93;99425.81;5041394;28;20087;-63
2021/01/23 02:28:44;;;;;;;33.53;16.42;;;;;;;0.73;97.35;99430.50;5042469;28;20049;-63
2021/01/23 02:31:14;;;;;;;36.40;16.67;;;;;;;0.66;97.58;99422.13;5040943;28;20057;-63
2021/01/23 02:33:41;;;;;;;32.72;17.42;;;;;;;0.66;97.66;99430.06;5040134;28;20061;-62
2021/01/23 02:36:11;;;;;;;41.25;19.58;;;;;;;0.66;97.45;99425.63;5040188;28;20441;-62
2021/01/23 02:38:37;;;;;;;43.90;20.15;;;;;;;0.75;98.11;99423.28;5042381;28;20433;-62
2021/01/23 02:43:31;;;;;;;39.63;19.63;;;;;;;0.81;98.17;99415.75;4953730;22;20045;-61
2021/01/23 02:45:57;;;;;;;40.30;17.85;;;;;;;0.83;97.45;99411.16;5053027;28;20052;-61
2021/01/23 02:48:24;;;;;;;27.75;15.48;;;;;;;0.86;97.51;99420.72;5054195;28;20044;-62
2021/01/23 02:50:50;;;;;;;36.45;18.45;;;;;;;0.94;97.68;99417.50;5056666;28;20115;-62
2021/01/23 02:53:20;;;;;;;44.03;19.98;;;;;;;0.96;97.61;99416.44;5055137;28;20064;-63
2021/01/23 02:55:47;;;;;;;;;;;;;;;1.05;98.07;99414.94;5056801;28;20504;-62
2021/01/23 02:58:17;;;;;;;61.42;22.98;;;;;;;1.07;97.29;99404.22;5054530;28;19921;-62
2021/01/23 03:00:44;;;;;;;65.88;22.92;;;;;;;1.08;98.11;99409.41;5055055;28;20521;-61
2021/01/23 03:03:13;;;;;;;55.38;22.77;;;;;;;1.13;97.55;99411.72;5053449;28;20505;-61
2021/01/23 03:05:40;;;;;;;68.93;23.70;;;;;;;1.12;97.79;99408.25;5054316;28;20049;-62
2021/01/23 03:08:07;;;;;;;62.83;23.10;;;;;;;1.12;97.91;99405.59;5055902;28;20057;-62
2021/01/23 03:10:35;;;;;;;58.72;22.50;;;;;;;1.15;97.66;99409.81;5055633;28;20131;-62
2021/01/23 03:13:01;;;;;;;47.85;19.77;;;;;;;1.18;97.80;99410.44;5056541;28;20056;-61
2021/01/23 03:15:28;;;;;;;36.33;17.25;;;;;;;1.19;97.34;99398.88;5055757;28;20053;-62
2021/01/23 03:17:53;;;;;;;28.02;16.35;;;;;;;1.23;97.20;99407.44;5056051;28;20078;-62
2021/01/23 03:20:19;;;;;;;32.25;17.05;;;;;;;1.22;97.81;99405.75;5058452;28;20052;-62
2021/01/23 03:22:46;;;;;;;29.10;17.00;;;;;;;1.26;97.70;99395.78;5056602;28;20131;-63
2021/01/23 03:25:12;;;;;;;27.33;16.27;;;;;;;1.31;97.35;99393.63;5055450;28;20051;-62
2021/01/23 03:27:38;;;;;;;30.63;17.30;;;;;;;1.33;97.70;99392.56;5056818;28;20049;-61
2021/01/23 03:30:05;;;;;;;28.63;16.90;;;;;;;1.41;97.82;99389.34;5055955;28;20581;-62
2021/01/23 03:32:31;;;;;;;29.40;17.73;;;;;;;1.34;97.14;99388.97;5055224;28;20107;-61
2021/01/23 03:34:57;;;;;;;28.02;17.23;;;;;;;1.36;97.81;99394.97;5054595;28;20480;-61
2021/01/23 03:37:24;;;;;;;26.20;16.75;;;;;;;1.39;97.34;99391.25;5054980;28;20529;-61
2021/01/23 03:39:51;;;;;;;34.30;17.67;;;;;;;1.46;97.11;99397.81;5059190;28;20052;-62
2021/01/23 03:42:17;;;;;;;27.77;17.55;;;;;;;1.47;97.04;99388.03;5053933;28;20052;-63
2021/01/23 03:44:43;;;;;;;29.10;17.65;;;;;;;1.48;97.73;99385.28;5054131;28;20046;-62
2021/01/23 03:47:09;;;;;;;29.70;17.20;;;;;;;1.52;97.19;99381.44;5054252;28;21570;-62
2021/01/23 03:49:35;;;;;;;33.70;18.13;;;;;;;1.53;97.35;99371.66;5056901;28;20590;-61
2021/01/23 03:52:01;;;;;;;31.83;18.40;;;;;;;1.56;97.40;99366.13;5052267;28;20057;-62
2021/01/23 03:54:27;;;;;;;37.15;17.50;;;;;;;1.56;97.83;99374.94;5054956;28;20056;-61
2021/01/23 03:56:54;;;;;;;29.33;17.40;;;;;;;1.57;97.84;99373.13;5059182;28;20424;-62
2021/01/23 03:59:19;;;;;;;31.88;19.08;;;;;;;1.60;97.38;99370.25;5053786;28;20045;-61
2021/01/23 04:01:45;;;;;;;35.60;18.45;;;;;;;1.57;97.19;99365.19;5053583;28;20071;-62
2021/01/23 04:04:11;;;;;;;29.95;17.90;;;;;;;1.54;97.84;99360.94;5053205;28;20468;-61
2021/01/23 04:06:37;;;;;;;29.63;18.08;;;;;;;1.56;97.32;99361.69;5056307;28;20387;-63
2021/01/23 04:09:04;;;;;;;31.00;18.02;;;;;;;1.60;97.63;99364.09;5053732;28;20094;-63
2021/01/23 04:11:29;;;;;;;29.67;17.80;;;;;;;1.59;96.96;99357.97;5055615;28;20048;-62
2021/01/23 04:13:56;;;;;;;35.67;19.98;;;;;;;1.54;97.06;99352.16;5055703;28;20057;-61
2021/01/23 04:16:22;;;;;;;32.72;19.13;;;;;;;1.57;97.41;99352.75;5054868;28;20288;-61
2021/01/23 04:18:48;;;;;;;33.80;18.25;;;;;;;1.58;97.85;99358.91;5050533;28;20049;-61
2021/01/23 04:21:14;;;;;;;36.83;20.60;;;;;;;1.57;97.73;99347.44;5054914;28;20119;-62
2021/01/23 04:23:40;;;;;;;43.65;20.83;;;;;;;1.64;97.70;99353.16;5047136;28;20106;-62
2021/01/23 04:26:06;;;;;;;55.08;22.10;;;;;;;1.63;97.79;99351.44;5055499;28;20110;-62
2021/01/23 04:28:32;;;;;;;50.17;24.10;;;;;;;1.62;97.31;99352.44;5051587;28;20052;-62
2021/01/23 04:30:58;;;;;;;46.35;21.13;;;;;;;1.63;97.42;99351.44;5056400;28;20101;-62
2021/01/23 04:33:24;;;;;;;44.60;23.98;;;;;;;1.64;97.44;99349.66;5082190;22;20052;-62
2021/01/23 04:35:50;;;;;;;41.53;21.80;;;;;;;1.63;97.57;99356.75;5080133;28;20053;-62
2021/01/23 04:38:16;;;;;;;38.75;19.30;;;;;;;1.66;97.78;99350.38;5095088;28;20048;-61
2021/01/23 04:40:42;;;;;;;35.97;20.23;;;;;;;1.72;97.41;99348.13;5099956;28;20416;-62
2021/01/23 04:43:09;;;;;;;35.08;19.08;;;;;;;1.73;97.53;99352.44;5090039;28;20528;-62
2021/01/23 04:45:35;;;;;;;32.70;19.67;;;;;;;1.73;97.76;99346.28;5083633;28;20113;-61
2021/01/23 04:48:02;;;;;;;35.25;19.60;;;;;;;1.79;96.87;99339.69;5084056;28;20986;-62
2021/01/23 04:50:28;;;;;;;36.85;20.45;;;;;;;1.79;97.21;99337.03;5095497;28;20636;-61
2021/01/23 04:52:54;;;;;;;33.00;19.30;;;;;;;1.80;97.55;99341.38;5105779;28;20047;-63
2021/01/23 04:55:20;;;;;;;31.60;17.83;;;;;;;1.83;96.72;99341.97;5105038;28;20055;-62
2021/01/23 04:57:46;;;;;;;31.00;17.33;;;;;;;1.82;97.02;99342.09;5106119;28;20481;-62
2021/01/23 05:00:13;;;;;;;32.35;18.73;;;;;;;1.80;96.80;99331.59;5101220;28;20052;-61
2021/01/23 05:02:39;;;;;;;28.60;17.63;;;;;;;1.81;97.65;99327.13;5103267;28;20400;-60
2021/01/23 05:05:07;;;;;;;27.67;18.70;;;;;;;1.84;97.44;99337.50;5100875;28;20162;-61
2021/01/23 05:07:35;;;;;;;28.80;16.63;;;;;;;1.84;96.93;99335.72;5102186;28;20052;-63
2021/01/23 05:10:13;;;;;;;28.48;17.92;;;;;;;1.83;97.33;99331.38;5104229;28;20055;-61
2021/01/23 05:12:41;;;;;;;29.98;18.50;;;;;;;1.85;97.26;99341.88;5103293;28;20047;-61
2021/01/23 05:15:09;;;;;;;29.17;17.80;;;;;;;1.87;96.49;99340.78;5101305;28;20051;-62
2021/01/23 05:17:46;;;;;;;27.83;17.02;;;;;;;1.89;96.83;99335.38;5089539;28;20056;-62
2021/01/23 05:20:28;;;;;;;33.58;19.23;;;;;;;1.84;97.18;99329.56;5085236;28;20040;-62
2021/01/23 05:22:54;;;;;;;29.58;18.40;;;;;;;1.85;97.20;99331.25;5083850;28;20504;-62
2021/01/23 05:25:20;;;;;;;33.70;20.45;;;;;;;1.94;96.80;99338.50;5082417;28;20048;-62
2021/01/23 05:27:46;;;;;;;29.08;17.70;;;;;;;1.93;96.41;99339.47;5082845;28;20044;-61
2021/01/23 05:30:13;;;;;;;27.58;18.08;;;;;;;1.95;97.17;99331.41;5084368;28;20056;-61
2021/01/23 05:32:39;;;;;;;30.13;18.40;;;;;;;1.91;96.96;99322.81;5093237;28;20059;-62
2021/01/23 05:35:14;;;;;;;25.48;16.90;;;;;;;1.87;96.70;99322.22;5102947;28;20063;-62
2021/01/23 05:37:40;;;;;;;26.55;17.70;;;;;;;1.91;97.32;99318.38;5098609;28;20046;-62
2021/01/23 05:40:07;;;;;;;27.60;15.32;;;;;;;1.92;96.96;99316.56;5089294;28;20508;-62
2021/01/23 05:42:41;;;;;;;22.95;15.70;;;;;;;1.88;97.37;99312.44;5092151;28;20063;-62
2021/01/23 05:45:12;;;;;;;26.88;16.70;;;;;;;1.85;97.03;99312.69;5108834;28;20108;-62
2021/01/23 05:47:39;;;;;;;24.38;16.45;;;;;;;1.84;97.19;99311.84;5104509;28;20452;-61
2021/01/23 05:50:06;;;;;;;25.38;14.50;;;;;;;1.87;96.72;99305.44;5109111;28;20051;-61
2021/01/23 05:52:33;;;;;;;22.85;14.35;;;;;;;1.93;96.69;99311.13;5084400;28;20471;-62
2021/01/23 05:55:00;;;;;;;20.65;14.48;;;;;;;1.98;97.23;99313.41;5097505;28;20104;-62
2021/01/23 05:57:27;;;;;;;21.65;14.13;;;;;;;1.97;96.67;99317.03;5096996;28;20048;-62
2021/01/23 05:59:53;;;;;;;23.25;14.32;;;;;;;2.06;96.86;99318.13;5089775;28;20055;-61
2021/01/23 06:02:21;;;;;;;19.27;13.07;;;;;;;2.15;96.35;99308.59;5095371;28;20109;-61
2021/01/23 06:04:50;;;;;;;22.35;13.38;;;;;;;2.13;97.12;99305.22;5090964;28;20094;-62
2021/01/23 06:07:47;;;;;;;22.50;14.13;;;;;;;2.15;97.25;99311.25;5088642;28;20059;-63
2021/01/23 06:10:36;;;;;;;24.98;14.50;;;;;;;2.18;96.24;99317.19;5106604;28;20055;-63
2021/01/23 06:13:03;;;;;;;21.92;13.45;;;;;;;2.22;96.88;99315.09;5107872;28;20059;-63
2021/01/23 06:15:40;;;;;;;21.80;13.30;;;;;;;2.26;96.12;99316.56;5110528;28;20096;-61
2021/01/23 06:18:07;;;;;;;24.58;14.50;;;;;;;2.26;96.84;99317.41;5109135;28;20056;-61
2021/01/23 06:20:50;;;;;;;27.55;14.23;;;;;;;2.27;96.38;99324.41;5108840;28;20040;-61
2021/01/23 06:23:20;;;;;;;23.17;13.80;;;;;;;2.25;96.35;99320.19;5102952;28;20047;-62
2021/01/23 06:25:58;;;;;;;21.63;14.82;;;;;;;2.17;96.26;99322.59;5110687;28;20126;-62
2021/01/23 06:28:54;;;;;;;23.77;15.00;;;;;;;2.17;96.32;99323.44;5108654;28;20054;-62
2021/01/23 06:31:29;;;;;;;25.92;14.35;;;;;;;2.11;96.29;99323.94;5110206;28;20439;-62
2021/01/23 06:33:55;;;;;;;26.15;13.88;;;;;;;2.04;96.00;99322.72;5109263;28;20512;-61
2021/01/23 06:36:23;;;;;;;22.30;13.95;;;;;;;2.01;96.98;99328.25;5109555;28;20052;-62
2021/01/23 06:39:07;;;;;;;22.02;14.15;;;;;;;2.02;96.87;99328.13;5111755;28;20051;-62
2021/01/23 06:41:34;;;;;;;23.52;14.73;;;;;;;2.05;97.06;99335.84;5089277;28;20485;-62
2021/01/23 06:44:10;;;;;;;22.30;13.75;;;;;;;2.12;97.29;99335.38;5089198;28;20043;-62
2021/01/23 06:46:38;;;;;;;20.58;15.45;;;;;;;2.15;97.14;99329.81;5109152;28;20089;-62
2021/01/23 06:49:06;;;;;;;20.50;14.38;;;;;;;2.19;96.40;99328.63;5110902;28;20059;-61
2021/01/23 06:51:32;;;;;;;22.77;15.27;;;;;;;2.18;96.96;99327.78;5109778;28;20044;-62
2021/01/23 06:54:13;;;;;;;23.83;15.02;;;;;;;2.21;96.71;99332.00;5108734;28;20129;-61
2021/01/23 06:56:41;;;;;;;24.00;13.55;;;;;;;2.19;96.44;99331.28;5096575;28;20489;-62
2021/01/23 06:59:07;;;;;;;20.30;13.80;;;;;;;2.17;96.67;99333.22;5090757;28;20055;-62
2021/01/23 07:01:33;;;;;;;22.90;13.10;;;;;;;2.22;96.26;99325.72;5087125;28;20040;-62
2021/01/23 07:04:05;;;;;;;20.17;12.35;;;;;;;2.26;96.05;99330.66;5089985;28;20127;-62
2021/01/23 07:06:31;;;;;;;24.73;14.02;;;;;;;2.25;96.44;99336.09;5106720;28;20062;-62
2021/01/23 07:08:57;;;;;;;21.85;12.38;;;;;;;2.23;96.07;99346.00;5109322;28;20056;-62
2021/01/23 07:11:24;;;;;;;23.10;12.15;;;;;;;2.27;96.91;99344.81;5110122;28;20055;-61
2021/01/23 07:13:58;;;;;;;20.35;12.32;;;;;;;2.23;96.50;99344.19;5109371;28;20051;-61
2021/01/23 07:16:25;;;;;;;22.67;12.38;;;;;;;2.26;96.12;99343.13;5106312;28;20048;-60
2021/01/23 07:18:52;;;;;;;23.63;14.13;;;;;;;2.25;96.83;99352.91;5109285;28;20051;-61
2021/01/23 07:21:19;;;;;;;21.20;12.93;;;;;;;2.31;96.67;99353.38;5109750;28;20134;-61
2021/01/23 07:23:47;;;;;;;25.85;14.50;;;;;;;2.30;95.91;99355.19;5107760;28;20535;-62
2021/01/23 07:26:14;;;;;;;18.45;12.90;;;;;;;2.33;96.29;99354.94;5108300;28;20134;-62
2021/01/23 07:28:44;;;;;;;28.73;13.68;;;;;;;2.30;96.73;99359.63;5107364;28;20058;-62
2021/01/23 07:31:20;;;;;;;22.30;13.40;;;;;;;2.33;96.38;99354.94;5109121;28;20432;-61
2021/01/23 07:33:47;;;;;;;20.30;12.40;;;;;;;2.34;96.34;99359.28;5106673;28;20052;-61
2021/01/23 07:36:33;;;;;;;22.00;13.25;;;;;;;2.33;95.80;99352.28;5107439;28;20043;-62
2021/01/23 07:39:00;;;;;;;21.27;12.15;;;;;;;2.35;96.18;99360.97;5110704;28;20065;-62
2021/01/23 07:41:31;;;;;;;21.80;13.50;;;;;;;2.40;95.77;99361.47;5108605;28;20059;-61
2021/01/23 07:43:59;;;;;;;21.40;13.52;;;;;;;2.40;96.38;99366.78;5107592;28;20100;-61
2021/01/23 07:46:33;;;;;;;21.20;12.88;;;;;;;2.38;96.52;99367.84;5107245;28;20435;-62
2021/01/23 07:48:59;;;;;;;21.48;13.18;;;;;;;2.39;95.89;99365.06;5108272;28;20055;-61
2021/01/23 07:51:27;;;;;;;20.50;12.73;;;;;;;2.39;96.36;99365.06;5107784;28;20435;-61
2021/01/23 07:54:09;;;;;;;21.35;12.90;;;;;;;2.41;96.05;99364.94;5105771;28;20416;-62
2021/01/23 07:56:36;;;;;;;23.15;12.43;;;;;;;2.37;96.00;99367.03;5108470;28;20051;-61
2021/01/23 07:59:03;;;;;;;26.13;13.77;;;;;;;2.35;96.31;99362.78;5105997;28;20417;-62
2021/01/23 08:01:30;;;;;;;18.38;12.00;;;;;;;2.39;95.78;99380.19;5107912;28;20492;-62
2021/01/23 08:03:56;;;;;;;23.55;14.48;;;;;;;2.40;96.08;99374.75;5106861;28;20056;-62
2021/01/23 08:06:23;;;;;;;22.63;14.02;;;;;;;2.43;95.79;99371.00;5107221;28;20135;-61
2021/01/23 08:08:50;;;;;;;22.77;14.32;;;;;;;2.42;96.15;99372.78;5109498;28;20124;-62
2021/01/23 08:11:38;;;;;;;25.80;13.48;;;;;;;2.45;96.41;99380.53;5106640;28;20044;-61
2021/01/23 08:14:09;;;;;;;22.63;14.23;;;;;;;2.48;96.46;99378.59;5106838;28;20401;-61
2021/01/23 08:16:35;;;;;;;25.48;14.57;;;;;;;2.50;96.49;99376.66;5108440;28;20046;-61
2021/01/23 08:19:08;;;;;;;26.88;13.85;;;;;;;2.54;95.93;99367.50;5109674;28;20051;-62
2021/01/23 08:21:34;;;;;;;21.98;14.20;;;;;;;2.53;95.97;99376.41;5108513;28;20108;-62
2021/01/23 08:24:00;;;;;;;22.85;13.80;;;;;;;2.58;95.65;99371.59;5096303;28;20420;-62
2021/01/23 08:26:38;;;;;;;27.42;14.07;;;;;;;2.58;96.01;99371.59;5106999;28;20047;-62
2021/01/23 08:29:04;;;;;;;21.65;14.05;;;;;;;2.61;95.85;99374.00;5107829;28;20056;-61
2021/01/23 08:31:31;;;;;;;18.95;12.63;;;;;;;2.60;96.10;99372.31;5107925;28;20055;-62
2021/01/23 08:33:58;;;;;;;24.10;13.88;;;;;;;2.65;95.77;99383.44;5107543;28;20096;-61
2021/01/23 08:36:26;;;;;;;21.10;13.55;;;;;;;2.70;95.55;99383.06;5105716;28;20093;-61
2021/01/23 08:38:56;;;;;;;19.17;12.80;;;;;;;2.69;95.88;99387.50;5107435;28;20430;-61
2021/01/23 08:41:22;;;;;;;19.15;13.05;;;;;;;2.75;95.65;99391.50;5106408;28;20059;-61
2021/01/23 08:43:48;;;;;;;22.25;15.13;;;;;;;2.74;95.08;99385.34;5108577;28;20047;-61
2021/01/23 08:46:14;;;;;;;21.83;13.05;;;;;;;2.77;94.92;99377.13;5109133;28;20420;-62
2021/01/23 08:48:40;;;;;;;22.15;14.30;;;;;;;2.80;95.56;99374.22;5108435;28;20059;-61
2021/01/23 08:51:06;;;;;;;23.33;12.85;;;;;;;2.83;94.98;99372.28;5107532;28;20055;-62
2021/01/23 08:53:32;;;;;;;18.33;12.57;;;;;;;2.84;95.16;99366.84;5109492;28;20511;-62
2021/01/23 08:55:58;;;;;;;18.92;12.48;;;;;;;2.87;95.14;99374.59;5108031;28;20051;-62
2021/01/23 08:58:25;;;;;;;22.60;14.45;;;;;;;2.84;95.06;99368.66;5108471;28;20052;-61
2021/01/23 09:00:51;;;;;;;20.90;12.27;;;;;;;2.84;94.37;99373.97;5107654;28;20092;-61
2021/01/23 09:03:17;;;;;;;23.48;12.93;;;;;;;2.84;94.76;99379.28;5105973;28;20051;-62
2021/01/23 09:05:44;;;;;;;16.30;11.32;;;;;;;2.84;94.13;99373.97;5106535;28;20039;-62
2021/01/23 09:08:10;;;;;;;20.10;13.90;;;;;;;2.83;94.65;99365.16;5107599;28;20374;-62
2021/01/23 09:13:06;;;;;;;17.77;12.20;;;;;;;2.90;94.26;99362.84;5094599;22;20089;-63
2021/01/23 09:15:33;;;;;;;17.90;12.13;;;;;;;2.97;93.61;99372.88;5098213;28;20047;-62
2021/01/23 09:17:59;;;;;;;20.80;12.38;;;;;;;2.98;93.88;99376.38;5098385;28;20044;-62
2021/01/23 09:20:25;;;;;;;21.23;12.60;;;;;;;2.96;93.45;99379.16;5092869;28;20054;-62
2021/01/23 09:22:52;;;;;;;18.95;11.43;;;;;;;2.94;94.29;99380.25;5096289;28;20044;-61
2021/01/23 09:25:19;;;;;;;19.40;13.07;;;;;;;2.91;94.68;99380.50;5097653;28;20060;-62
2021/01/23 09:27:45;;;;;;;22.40;13.10;;;;;;;2.93;94.71;99378.53;5096076;28;20059;-61
2021/01/23 09:30:14;;;;;;;19.98;12.65;;;;;;;2.92;94.71;99375.03;5094931;28;20082;-62
2021/01/23 09:32:40;;;;;;;21.37;14.53;;;;;;;2.94;94.56;99382.91;5096425;28;20040;-62
2021/01/23 09:35:08;;;;;;;25.88;12.93;;;;;;;2.94;95.20;99375.75;5087806;28;20289;-61
2021/01/23 09:37:34;;;;;;;21.25;13.43;;;;;;;2.98;95.35;99373.72;5096893;28;20117;-62
2021/01/23 09:40:01;;;;;;;22.90;14.75;;;;;;;2.94;94.73;99369.59;5099292;28;20054;-61
2021/01/23 09:42:28;;;;;;;21.88;14.70;;;;;;;3.04;95.54;99375.88;5097013;28;20055;-62
2021/01/23 09:44:54;;;;;;;22.75;14.70;;;;;;;3.06;95.23;99373.94;5097821;28;20523;-62
2021/01/23 09:47:20;;;;;;;23.85;14.23;;;;;;;2.99;94.64;99372.75;5094854;28;20056;-61
2021/01/23 09:49:46;;;;;;;25.45;14.98;;;;;;;2.95;95.56;99371.31;5095901;28;20443;-62
2021/01/23 09:52:12;;;;;;;26.73;14.93;;;;;;;2.95;95.71;99371.31;5090187;28;20052;-62
2021/01/23 09:54:38;;;;;;;28.95;16.50;;;;;;;3.02;96.14;99372.50;5092357;28;20059;-62
2021/01/23 09:57:08;;;;;;;29.45;15.48;;;;;;;3.04;95.68;99381.19;5097432;28;20052;-63
2021/01/23 09:59:34;;;;;;;24.00;14.85;;;;;;;3.08;95.05;99365.84;5093198;28;20481;-62
2021/01/23 10:04:31;;;;;;;20.23;14.07;;;;;;;2.97;94.67;99380.84;5067091;23;20048;-61
2021/01/23 10:06:57;;;;;;;29.27;15.70;;;;;;;2.96;94.85;99370.34;5057864;28;20045;-61
2021/01/23 10:09:24;;;;;;;20.67;15.57;;;;;;;2.95;94.95;99372.13;5053867;28;20049;-62
2021/01/23 10:11:50;;;;;;;23.90;14.63;;;;;;;3.05;94.55;99376.69;5057499;28;20048;-61
2021/01/23 10:14:17;;;;;;;21.30;14.20;;;;;;;3.06;94.99;99368.63;5058591;28;20103;-62
2021/01/23 10:16:43;;;;;;;23.40;14.07;;;;;;;3.11;95.08;99374.41;5060147;28;20045;-62
2021/01/23 10:19:09;;;;;;;19.95;14.10;;;;;;;3.10;94.99;99380.69;5059274;28;20057;-62
2021/01/23 10:21:35;;;;;;;22.50;14.05;;;;;;;3.08;94.57;99381.78;5058837;28;20048;-63
2021/01/23 10:24:02;;;;;;;17.30;12.48;;;;;;;3.03;94.10;99387.47;5053367;28;20060;-63
2021/01/23 10:26:28;;;;;;;18.17;12.90;;;;;;;3.14;94.11;99392.75;5061828;28;20041;-63
2021/01/23 10:28:54;;;;;;;20.70;13.70;;;;;;;3.25;93.67;99394.53;5058939;28;20193;-63
2021/01/23 10:31:20;;;;;;;17.63;13.55;;;;;;;3.33;93.80;99393.94;5061254;28;20330;-62
2021/01/23 10:33:47;;;;;;;19.83;15.30;;;;;;;3.29;93.45;99382.69;5056915;28;20401;-63
2021/01/23 10:36:13;;;;;;;21.83;14.40;;;;;;;3.33;93.51;99381.47;5058951;28;20049;-62
2021/01/23 10:38:39;;;;;;;19.70;13.77;;;;;;;3.57;93.79;99382.22;5061506;28;20123;-63
2021/01/23 10:41:05;;;;;;;20.35;12.80;;;;;;;3.60;93.23;99387.28;5061950;28;20044;-63
2021/01/23 10:43:31;;;;;;;23.35;13.02;;;;;;;3.64;92.91;99380.75;5060717;28;20139;-63
2021/01/23 10:45:57;;;;;;;16.25;12.13;;;;;;;3.71;92.41;99389.03;5061365;28;20464;-63
2021/01/23 10:48:24;;;;;;;17.90;12.82;;;;;;;3.65;91.81;99382.41;5058481;28;20044;-63
2021/01/23 10:50:50;;;;;;;20.63;12.57;;;;;;;3.57;91.99;99379.56;5058617;28;20048;-62
2021/01/23 10:53:17;;;;;;;20.50;13.02;;;;;;;3.58;91.97;99378.56;5060120;28;20055;-63
2021/01/23 10:55:43;;;;;;;20.08;12.95;;;;;;;3.59;91.88;99385.59;5059136;28;20110;-63
2021/01/23 10:58:09;;;;;;;19.08;12.38;;;;;;;3.47;91.81;99377.66;4965978;28;20199;-63
2021/01/23 11:00:35;;;;;;;17.80;13.15;;;;;;;3.41;92.15;99380.81;4935561;28;20110;-63
2021/01/23 11:03:00;;;;;;;19.45;12.80;;;;;;;3.46;92.49;99381.31;4937681;28;20662;-63
2021/01/23 11:05:27;;;;;;;21.40;12.98;;;;;;;3.58;92.07;99378.56;5017598;28;20080;-64
2021/01/23 11:07:53;;;;;;;18.25;13.50;;;;;;;3.64;92.14;99378.94;5058154;28;20544;-63
2021/01/23 11:10:19;;;;;;;16.98;12.27;;;;;;;3.67;92.23;99377.84;4939766;28;20910;-63
2021/01/23 11:12:45;;;;;;;23.40;13.10;;;;;;;3.73;91.84;99368.50;4941179;28;20155;-63
2021/01/23 11:15:13;;;;;;;19.70;12.85;;;;;;;3.67;91.66;99377.84;4938379;28;20057;-62
2021/01/23 11:17:39;;;;;;;17.60;12.75;;;;;;;3.76;91.41;99371.72;4934459;28;20423;-63
2021/01/23 11:20:09;;;;;;;19.05;13.27;;;;;;;3.74;91.22;99378.16;4938741;28;20812;-62
2021/01/23 11:22:35;;;;;;;;;;;;;;;3.71;90.74;99373.09;4936674;28;20119;-62
2021/01/23 11:25:01;;;;;;;15.82;11.80;;;;;;;3.76;90.87;99373.56;4937551;28;20192;-63
2021/01/23 11:27:27;;;;;;;16.05;11.10;;;;;;;3.88;90.55;99379.66;4938642;28;20048;-63
2021/01/23 11:29:55;;;;;;;16.80;11.73;;;;;;;3.90;90.72;99383.88;4940058;28;20068;-63
2021/01/23 11:32:21;;;;;;;17.60;10.35;;;;;;;3.78;90.49;99375.09;4938055;28;20092;-61
2021/01/23 11:34:47;;;;;;;14.68;11.18;;;;;;;3.75;89.99;99383.34;4936878;28;20102;-62
2021/01/23 11:37:13;;;;;;;15.20;10.98;;;;;;;3.76;90.30;99379.72;4937900;28;21803;-63
2021/01/23 11:39:39;;;;;;;20.85;12.35;;;;;;;3.79;90.17;99382.09;4935559;28;20056;-64
2021/01/23 11:42:06;;;;;;;13.77;10.90;;;;;;;3.92;89.03;99379.28;4936515;28;20838;-64